Time;durP1;ratioP1;P1;durP2;ratioP2;P2;SDS_P1;SDS_P2;PMS_P1;PMS_P2;Temp;Humidity;BMP_temperature;BMP_pressure;BME280_temperature;BME280_humidity;BME280_pressure;Samples;Min_cycle;Max_cycle;Signal;HPM_P1;HPM_P2
2023/09/06 00:01:52;;;;;;;11.30;5.00;;;15.80;78.00;;;;;;4789888;29;20398;-88
2023/09/06 00:04:19;;;;;;;8.82;4.25;;;15.70;78.20;;;;;;4787983;29;20046;-89
2023/09/06 00:06:46;;;;;;;10.55;4.30;;;15.80;78.10;;;;;;4806753;29;20149;-88
2023/09/06 00:09:13;;;;;;;10.40;4.78;;;15.80;78.30;;;;;;4788685;29;20080;-89
2023/09/06 00:11:40;;;;;;;10.23;4.33;;;15.70;78.40;;;;;;4790626;29;20149;-89
2023/09/06 00:14:07;;;;;;;9.70;4.25;;;15.70;78.20;;;;;;4790572;29;20050;-89
2023/09/06 00:16:34;;;;;;;9.77;4.90;;;15.70;78.30;;;;;;4790415;29;20051;-89
2023/09/06 00:19:02;;;;;;;10.02;4.45;;;15.60;78.40;;;;;;4790764;29;20062;-90
2023/09/06 00:21:29;;;;;;;9.45;4.90;;;15.60;78.40;;;;;;4790723;29;20141;-89
2023/09/06 00:23:58;;;;;;;9.40;4.30;;;15.60;78.50;;;;;;4790689;29;20051;-89
2023/09/06 00:26:26;;;;;;;10.15;4.28;;;15.60;78.60;;;;;;4790696;29;20058;-89
2023/09/06 00:28:54;;;;;;;9.63;4.38;;;15.60;78.40;;;;;;4768159;29;20073;-89
2023/09/06 00:31:21;;;;;;;10.48;5.05;;;15.60;78.30;;;;;;4790475;29;20409;-90
2023/09/06 00:33:48;;;;;;;9.57;4.40;;;15.50;78.50;;;;;;4772480;29;20050;-89
2023/09/06 00:36:15;;;;;;;10.33;4.70;;;15.50;78.50;;;;;;4786890;29;20050;-89
2023/09/06 00:38:42;;;;;;;9.48;4.65;;;15.50;78.40;;;;;;4788103;29;20433;-89
2023/09/06 00:41:10;;;;;;;9.63;4.88;;;15.50;78.60;;;;;;4793090;29;20051;-89
2023/09/06 00:43:37;;;;;;;10.18;4.95;;;15.50;78.70;;;;;;4777444;29;20099;-89
2023/09/06 00:46:07;;;;;;;10.15;4.78;;;15.40;78.90;;;;;;4793150;29;20080;-88
2023/09/06 00:48:35;;;;;;;11.70;5.20;;;15.40;79.00;;;;;;4792479;29;20043;-89
2023/09/06 00:51:04;;;;;;;10.57;5.15;;;15.30;79.10;;;;;;4791795;29;20042;-88
2023/09/06 00:53:32;;;;;;;9.98;4.70;;;15.20;79.30;;;;;;4777748;29;20046;-88
2023/09/06 00:56:02;;;;;;;11.82;5.40;;;15.20;79.50;;;;;;4792311;29;20528;-88
2023/09/06 00:58:30;;;;;;;9.13;4.78;;;15.20;79.50;;;;;;4775973;29;20110;-88
2023/09/06 01:00:57;;;;;;;10.03;4.90;;;15.10;79.50;;;;;;4776010;29;20047;-89
2023/09/06 01:03:25;;;;;;;9.77;4.97;;;15.20;79.40;;;;;;4790150;29;20051;-88
2023/09/06 01:06:04;;;;;;;10.15;4.97;;;15.20;79.40;;;;;;4775076;29;20112;-88
2023/09/06 01:08:46;;;;;;;10.40;5.10;;;15.20;79.30;;;;;;4792532;29;20103;-88
2023/09/06 01:11:21;;;;;;;10.60;5.20;;;15.20;79.10;;;;;;4789933;29;20063;-89
2023/09/06 01:13:51;;;;;;;11.27;5.00;;;15.20;79.10;;;;;;4792764;29;20046;-88
2023/09/06 01:16:29;;;;;;;10.75;5.03;;;15.20;79.10;;;;;;4791662;29;20484;-89
2023/09/06 01:18:57;;;;;;;10.63;5.30;;;15.20;79.10;;;;;;4791293;29;20046;-88
2023/09/06 01:21:41;;;;;;;10.77;5.15;;;15.10;79.20;;;;;;4776025;29;20054;-88
2023/09/06 01:24:10;;;;;;;10.15;4.88;;;15.10;79.30;;;;;;4776286;29;20070;-89
2023/09/06 01:26:38;;;;;;;10.37;5.10;;;15.10;79.50;;;;;;4792499;29;20051;-89
2023/09/06 01:29:05;;;;;;;10.18;5.07;;;15.00;79.50;;;;;;4791069;29;20050;-89
2023/09/06 01:31:32;;;;;;;10.80;5.45;;;15.00;79.40;;;;;;4791919;29;20494;-89
2023/09/06 01:33:59;;;;;;;10.25;5.32;;;15.00;79.50;;;;;;4791863;29;20498;-89
2023/09/06 01:36:28;;;;;;;11.00;5.38;;;15.00;79.60;;;;;;4776272;29;20046;-89
2023/09/06 01:38:56;;;;;;;9.93;4.87;;;15.00;79.60;;;;;;4792146;29;20043;-89
2023/09/06 01:41:23;;;;;;;11.23;5.93;;;15.00;79.50;;;;;;4791507;29;20062;-89
2023/09/06 01:43:54;;;;;;;11.07;5.47;;;14.90;79.70;;;;;;4788069;29;20059;-89
2023/09/06 01:46:23;;;;;;;12.23;5.75;;;14.90;79.90;;;;;;4789460;29;20111;-88
2023/09/06 01:48:50;;;;;;;13.25;5.35;;;14.90;79.90;;;;;;4788779;29;20043;-89
2023/09/06 01:51:17;;;;;;;9.97;5.50;;;14.80;80.10;;;;;;4791350;29;20051;-88
2023/09/06 01:53:44;;;;;;;11.10;6.28;;;14.80;80.40;;;;;;4776203;29;20062;-88
2023/09/06 01:56:11;;;;;;;10.23;5.28;;;14.70;80.50;;;;;;4788576;29;20090;-88
2023/09/06 01:58:40;;;;;;;11.20;5.68;;;14.70;80.50;;;;;;4777041;29;20438;-88
2023/09/06 02:01:09;;;;;;;10.75;5.65;;;14.60;80.70;;;;;;4775250;29;20544;-88
2023/09/06 02:03:36;;;;;;;10.13;5.40;;;14.70;80.70;;;;;;4792054;29;20141;-88
2023/09/06 02:06:04;;;;;;;10.38;5.18;;;14.60;80.80;;;;;;4775952;29;20074;-88
2023/09/06 02:08:32;;;;;;;11.48;5.32;;;14.50;81.00;;;;;;4790535;29;20054;-88
2023/09/06 02:10:59;;;;;;;9.13;5.15;;;14.50;81.10;;;;;;4786874;29;20172;-88
2023/09/06 02:13:26;;;;;;;10.45;5.38;;;14.50;81.10;;;;;;4791716;29;20100;-88
2023/09/06 02:15:53;;;;;;;11.00;5.20;;;14.50;81.10;;;;;;4791580;29;20047;-88
2023/09/06 02:18:20;;;;;;;10.18;5.00;;;14.50;81.20;;;;;;4790573;29;20074;-88
2023/09/06 02:20:49;;;;;;;10.93;5.18;;;14.50;81.30;;;;;;4788453;29;20058;-88
2023/09/06 02:23:16;;;;;;;10.18;5.35;;;14.50;81.30;;;;;;4776912;29;20051;-88
2023/09/06 02:25:45;;;;;;;10.05;5.28;;;14.50;81.30;;;;;;4786955;29;20047;-88
2023/09/06 02:28:14;;;;;;;11.63;5.27;;;14.40;81.40;;;;;;4776499;29;20457;-88
2023/09/06 02:30:41;;;;;;;9.60;5.13;;;14.40;81.50;;;;;;4774100;29;20075;-88
2023/09/06 02:33:11;;;;;;;11.13;5.80;;;14.30;81.60;;;;;;4791832;29;20060;-88
2023/09/06 02:35:41;;;;;;;10.20;5.00;;;14.30;81.80;;;;;;4788805;29;20051;-88
2023/09/06 02:38:09;;;;;;;10.32;5.18;;;14.30;81.80;;;;;;4789674;29;20125;-88
2023/09/06 02:40:36;;;;;;;11.10;5.67;;;14.30;81.90;;;;;;4776482;29;20138;-88
2023/09/06 02:43:04;;;;;;;9.55;4.78;;;14.30;81.70;;;;;;4791729;29;20066;-90
2023/09/06 02:45:37;;;;;;;11.85;4.63;;;14.40;81.60;;;;;;4791932;29;20115;-90
2023/09/06 02:48:15;;;;;;;9.02;4.82;;;14.40;81.50;;;;;;4791667;29;20107;-90
2023/09/06 02:50:45;;;;;;;10.63;4.82;;;14.30;81.40;;;;;;4791841;29;20051;-90
2023/09/06 02:53:22;;;;;;;9.90;5.40;;;14.30;81.60;;;;;;4791841;29;20043;-90
2023/09/06 02:55:51;;;;;;;10.77;5.32;;;14.30;81.70;;;;;;4791672;29;20391;-89
2023/09/06 02:58:23;;;;;;;12.65;5.35;;;14.40;81.40;;;;;;4792166;29;20057;-89
2023/09/06 03:00:57;;;;;;;13.88;5.75;;;14.40;81.30;;;;;;4791631;29;20058;-90
2023/09/06 03:03:27;;;;;;;10.35;5.55;;;14.40;81.50;;;;;;4792282;29;20536;-90
2023/09/06 03:05:58;;;;;;;9.67;4.83;;;14.40;81.50;;;;;;4777790;29;20110;-90
2023/09/06 03:08:27;;;;;;;10.93;5.13;;;14.40;81.40;;;;;;4792193;29;20050;-90
2023/09/06 03:10:56;;;;;;;11.00;5.50;;;14.30;81.50;;;;;;4792188;29;20054;-90
2023/09/06 03:13:23;;;;;;;10.30;5.72;;;14.30;81.60;;;;;;4792281;29;20085;-90
2023/09/06 03:15:51;;;;;;;10.15;5.10;;;14.20;81.60;;;;;;4792073;29;20042;-90
2023/09/06 03:18:19;;;;;;;8.87;5.10;;;14.20;81.80;;;;;;4776704;29;20127;-90
2023/09/06 03:20:47;;;;;;;10.70;5.10;;;14.20;81.90;;;;;;4791789;29;20047;-90
2023/09/06 03:23:23;;;;;;;11.75;5.68;;;14.20;81.80;;;;;;4777701;29;20490;-90
2023/09/06 03:25:54;;;;;;;9.35;5.05;;;14.20;81.70;;;;;;4791575;29;20057;-89
2023/09/06 03:28:25;;;;;;;10.23;4.90;;;14.20;81.70;;;;;;4791484;29;20046;-91
2023/09/06 03:30:58;;;;;;;9.27;4.57;;;14.20;81.80;;;;;;4791468;29;20137;-90
2023/09/06 03:33:28;;;;;;;9.57;4.97;;;14.20;81.60;;;;;;4791513;29;20099;-90
2023/09/06 03:35:56;;;;;;;8.98;4.65;;;14.20;81.60;;;;;;4776540;29;20481;-90
2023/09/06 03:38:25;;;;;;;9.43;5.22;;;14.30;81.30;;;;;;4771947;29;20501;-89
2023/09/06 03:40:54;;;;;;;9.75;4.32;;;14.30;81.20;;;;;;4790884;29;20467;-89
2023/09/06 03:43:30;;;;;;;11.00;4.50;;;14.30;81.20;;;;;;4775861;29;20047;-88
2023/09/06 03:46:04;;;;;;;9.43;4.88;;;14.30;81.10;;;;;;4790184;29;20054;-90
2023/09/06 03:48:35;;;;;;;9.13;4.75;;;14.30;81.10;;;;;;4776566;29;20054;-96
2023/09/06 03:51:04;;;;;;;8.85;4.38;;;14.20;81.20;;;;;;4776438;29;20506;-87
2023/09/06 03:53:31;;;;;;;10.68;4.80;;;14.20;81.20;;;;;;4790754;29;20414;-91
2023/09/06 03:56:00;;;;;;;9.27;4.63;;;14.20;81.20;;;;;;4791159;29;20081;-92
2023/09/06 03:58:35;;;;;;;9.70;4.47;;;14.20;81.30;;;;;;4776872;29;20082;-91
2023/09/06 04:01:04;;;;;;;9.38;5.13;;;14.20;81.30;;;;;;4783720;29;20059;-91
2023/09/06 04:03:34;;;;;;;10.00;4.55;;;14.10;81.30;;;;;;4776584;29;20514;-91
2023/09/06 04:06:03;;;;;;;8.50;4.35;;;14.10;81.40;;;;;;4791055;29;20059;-91
2023/09/06 04:08:32;;;;;;;9.87;4.50;;;14.10;81.30;;;;;;4776541;29;20124;-91
2023/09/06 04:11:00;;;;;;;9.57;4.15;;;14.10;81.40;;;;;;4791106;29;20514;-91
2023/09/06 04:13:28;;;;;;;11.13;4.50;;;14.10;81.30;;;;;;4778602;29;20047;-91
2023/09/06 04:15:57;;;;;;;8.15;4.20;;;14.10;81.30;;;;;;4794550;29;20465;-92
2023/09/06 04:18:28;;;;;;;9.40;4.22;;;14.00;81.40;;;;;;4794762;29;20081;-91
2023/09/06 04:20:59;;;;;;;8.73;4.10;;;14.00;81.40;;;;;;4794602;29;20482;-92
2023/09/06 04:23:27;;;;;;;9.23;4.40;;;14.10;81.40;;;;;;4794709;29;20540;-92
2023/09/06 04:25:56;;;;;;;9.38;4.80;;;14.10;81.40;;;;;;4780026;29;20093;-92
2023/09/06 04:28:27;;;;;;;8.73;4.32;;;14.00;81.50;;;;;;4794321;29;20129;-91
2023/09/06 04:30:58;;;;;;;9.57;4.47;;;14.00;81.50;;;;;;4782087;29;20050;-91
2023/09/06 04:33:30;;;;;;;8.97;4.83;;;14.00;81.70;;;;;;4773708;30;20051;-91
2023/09/06 04:36:04;;;;;;;9.02;4.10;;;14.00;81.70;;;;;;4769400;29;20447;-91
2023/09/06 04:38:32;;;;;;;8.98;4.45;;;14.00;81.80;;;;;;4794192;29;20055;-91
2023/09/06 04:41:02;;;;;;;8.05;4.25;;;14.00;81.60;;;;;;4773323;30;20392;-91
2023/09/06 04:43:36;;;;;;;9.77;4.88;;;14.00;81.60;;;;;;4759343;30;20150;-91
2023/09/06 04:46:04;;;;;;;8.50;4.50;;;14.00;81.70;;;;;;4744098;30;20056;-92
2023/09/06 04:48:36;;;;;;;10.30;4.35;;;13.90;81.80;;;;;;4774044;29;20061;-90
2023/09/06 04:51:05;;;;;;;9.95;4.75;;;13.90;81.80;;;;;;4794050;29;20051;-92
2023/09/06 04:53:33;;;;;;;7.82;3.95;;;14.00;81.70;;;;;;4793938;29;20043;-92
2023/09/06 04:56:03;;;;;;;8.88;4.68;;;14.00;81.50;;;;;;4793847;29;20124;-92
2023/09/06 04:58:49;;;;;;;7.10;3.50;;;14.00;81.50;;;;;;4792680;29;20130;-91
2023/09/06 05:01:16;;;;;;;8.32;4.07;;;14.00;81.20;;;;;;4793796;29;20502;-90
2023/09/06 05:03:45;;;;;;;8.73;4.15;;;14.00;81.20;;;;;;4773363;29;20043;-91
2023/09/06 05:06:13;;;;;;;7.88;4.40;;;14.00;81.20;;;;;;4793744;29;20047;-91
2023/09/06 05:08:41;;;;;;;8.98;4.63;;;14.00;81.20;;;;;;4779342;29;20043;-91
2023/09/06 05:11:18;;;;;;;7.33;3.77;;;14.10;81.10;;;;;;4793809;29;20059;-92
2023/09/06 05:13:48;;;;;;;8.82;4.13;;;14.10;81.00;;;;;;4793773;29;20429;-91
2023/09/06 05:16:17;;;;;;;8.43;4.32;;;14.10;80.90;;;;;;4779068;29;20079;-92
2023/09/06 05:18:44;;;;;;;8.85;4.10;;;14.10;81.00;;;;;;4793968;29;20103;-92
2023/09/06 05:21:17;;;;;;;9.05;4.45;;;14.10;80.80;;;;;;4793616;29;20119;-92
2023/09/06 05:23:44;;;;;;;8.47;4.20;;;14.10;80.90;;;;;;4793502;29;20051;-91
2023/09/06 05:26:11;;;;;;;9.63;3.60;;;14.20;80.90;;;;;;4793538;29;20065;-92
2023/09/06 05:28:43;;;;;;;10.52;4.00;;;14.20;80.80;;;;;;4793526;29;20043;-92
2023/09/06 05:31:12;;;;;;;8.57;3.90;;;14.30;80.70;;;;;;4793336;29;20078;-92
2023/09/06 05:33:42;;;;;;;8.82;3.60;;;14.50;80.50;;;;;;4779002;29;20076;-92
2023/09/06 05:36:12;;;;;;;7.97;3.93;;;14.50;80.20;;;;;;4793481;29;20051;-91
2023/09/06 05:38:39;;;;;;;7.78;3.72;;;14.60;80.10;;;;;;4793235;29;20077;-91
2023/09/06 05:41:06;;;;;;;7.72;3.50;;;14.70;79.60;;;;;;4793473;29;20046;-92
2023/09/06 05:43:39;;;;;;;8.30;3.67;;;14.80;79.60;;;;;;4793373;29;20459;-92
2023/09/06 05:46:07;;;;;;;7.45;3.60;;;14.80;79.30;;;;;;4778658;29;20046;-91
2023/09/06 05:48:56;;;;;;;8.23;3.90;;;15.00;79.20;;;;;;4780896;29;20050;-91
2023/09/06 05:51:25;;;;;;;7.82;3.78;;;15.00;78.90;;;;;;4778382;29;20053;-91
2023/09/06 05:53:52;;;;;;;8.27;3.63;;;15.10;78.60;;;;;;4792923;29;20078;-92
2023/09/06 05:56:20;;;;;;;9.32;4.10;;;15.20;78.20;;;;;;4792956;29;20089;-91
2023/09/06 05:58:47;;;;;;;9.02;3.67;;;15.30;78.10;;;;;;4793062;29;20050;-91
2023/09/06 06:01:17;;;;;;;8.30;3.60;;;15.30;78.20;;;;;;4778365;29;20081;-91
2023/09/06 06:03:45;;;;;;;8.15;3.90;;;15.50;77.80;;;;;;4792851;29;20047;-91
2023/09/06 06:06:16;;;;;;;8.55;4.00;;;15.60;77.70;;;;;;4777985;29;20399;-91
2023/09/06 06:08:43;;;;;;;8.02;3.63;;;15.80;77.20;;;;;;4792693;29;20051;-91
2023/09/06 06:11:11;;;;;;;8.63;3.50;;;15.90;77.20;;;;;;4772185;30;20414;-91
2023/09/06 06:13:38;;;;;;;9.37;3.70;;;16.00;76.60;;;;;;4771703;29;20052;-92
2023/09/06 06:16:06;;;;;;;7.70;3.70;;;16.10;76.40;;;;;;4787968;30;20414;-92
2023/09/06 06:18:34;;;;;;;7.75;3.50;;;16.30;76.10;;;;;;4774275;29;20161;-92
2023/09/06 06:21:01;;;;;;;6.93;3.35;;;16.40;75.90;;;;;;4792750;29;20085;-92
2023/09/06 06:23:28;;;;;;;7.15;3.20;;;16.50;75.70;;;;;;4792546;29;20051;-92
2023/09/06 06:25:55;;;;;;;9.37;3.63;;;16.60;74.90;;;;;;4779890;29;20072;-92
2023/09/06 06:28:22;;;;;;;8.55;3.42;;;16.80;75.50;;;;;;4792490;29;20134;-92
2023/09/06 06:30:49;;;;;;;7.97;3.40;;;17.00;75.20;;;;;;4777737;29;20051;-92
2023/09/06 06:33:16;;;;;;;9.80;3.75;;;17.10;75.20;;;;;;4777400;29;20051;-92
2023/09/06 06:35:44;;;;;;;9.80;3.90;;;17.20;75.10;;;;;;4791841;29;20450;-92
2023/09/06 06:38:11;;;;;;;9.10;4.53;;;17.30;74.70;;;;;;4792561;29;20061;-91
2023/09/06 06:40:38;;;;;;;9.93;4.78;;;17.50;74.70;;;;;;4792199;29;20047;-92
2023/09/06 06:43:06;;;;;;;9.50;4.97;;;17.60;74.30;;;;;;4792390;29;20055;-92
2023/09/06 06:45:33;;;;;;;9.80;5.78;;;17.70;74.40;;;;;;4777328;29;20142;-92
2023/09/06 06:48:01;;;;;;;9.63;5.95;;;17.80;74.00;;;;;;4792324;29;20058;-92
2023/09/06 06:50:28;;;;;;;12.57;6.47;;;18.00;74.20;;;;;;4770249;30;20103;-92
2023/09/06 06:52:55;;;;;;;10.95;5.53;;;18.10;74.10;;;;;;4785937;29;20067;-92
2023/09/06 06:55:22;;;;;;;9.60;4.85;;;18.20;74.60;;;;;;4791855;29;20077;-93
2023/09/06 06:57:49;;;;;;;9.00;4.63;;;18.30;73.90;;;;;;4792167;29;20054;-92
2023/09/06 07:00:17;;;;;;;9.75;4.20;;;18.50;73.60;;;;;;4791951;29;20061;-91
2023/09/06 07:02:45;;;;;;;9.87;4.17;;;18.60;72.80;;;;;;4792119;29;20530;-92
2023/09/06 07:05:12;;;;;;;7.45;3.63;;;18.70;71.70;;;;;;4791925;29;20054;-92
2023/09/06 07:07:40;;;;;;;9.95;4.53;;;18.80;71.30;;;;;;4792082;29;20065;-93
2023/09/06 07:10:08;;;;;;;8.55;4.00;;;18.90;72.00;;;;;;4791492;29;20051;-92
2023/09/06 07:12:35;;;;;;;7.28;3.47;;;19.10;71.00;;;;;;4792010;29;20505;-92
2023/09/06 07:15:03;;;;;;;7.90;3.90;;;19.10;70.10;;;;;;4791835;29;20051;-92
2023/09/06 07:17:30;;;;;;;8.32;3.85;;;19.20;71.30;;;;;;4791756;29;20054;-92
2023/09/06 07:19:58;;;;;;;8.90;3.75;;;19.30;69.10;;;;;;4791682;29;20057;-92
2023/09/06 07:22:26;;;;;;;11.27;4.07;;;19.40;69.20;;;;;;4791694;29;20100;-91
2023/09/06 07:24:53;;;;;;;7.70;3.55;;;19.50;69.30;;;;;;4776706;29;20078;-92
2023/09/06 07:27:21;;;;;;;8.77;4.13;;;19.50;70.50;;;;;;4791796;29;20509;-92
2023/09/06 07:29:48;;;;;;;8.65;4.13;;;19.60;68.70;;;;;;4791342;29;20081;-92
2023/09/06 07:32:15;;;;;;;8.35;3.80;;;19.70;69.50;;;;;;4791587;29;20051;-93
2023/09/06 07:34:42;;;;;;;11.00;4.15;;;19.80;69.00;;;;;;4791589;29;20138;-92
2023/09/06 07:37:10;;;;;;;9.75;4.05;;;19.90;68.90;;;;;;4776866;29;20053;-93
2023/09/06 07:39:37;;;;;;;11.57;5.03;;;20.00;67.20;;;;;;4791460;29;20513;-93
2023/09/06 07:42:05;;;;;;;10.70;5.60;;;20.00;67.80;;;;;;4791568;29;20055;-92
2023/09/06 07:44:32;;;;;;;13.05;5.30;;;20.10;68.10;;;;;;4791486;29;20064;-92
2023/09/06 07:47:00;;;;;;;11.32;5.75;;;20.10;66.90;;;;;;4791180;29;20473;-93
2023/09/06 07:49:30;;;;;;;12.07;5.45;;;20.20;67.80;;;;;;4791388;29;20084;-92
2023/09/06 07:51:58;;;;;;;12.60;6.93;;;20.20;67.50;;;;;;4791484;29;20085;-92
2023/09/06 07:54:25;;;;;;;9.60;4.78;;;20.30;67.00;;;;;;4776385;29;20065;-92
2023/09/06 07:56:52;;;;;;;12.25;5.65;;;20.50;65.70;;;;;;4791269;29;20057;-93
2023/09/06 07:59:22;;;;;;;14.23;6.28;;;20.60;65.50;;;;;;4776523;29;20050;-93
2023/09/06 08:01:50;;;;;;;12.25;5.97;;;20.60;66.00;;;;;;4791211;29;20061;-93
2023/09/06 08:04:19;;;;;;;15.00;6.70;;;20.80;65.30;;;;;;4776459;29;20564;-92
2023/09/06 08:06:47;;;;;;;12.65;6.47;;;20.80;65.50;;;;;;4791330;29;20394;-92
2023/09/06 08:09:14;;;;;;;16.23;7.47;;;20.80;64.60;;;;;;4776462;29;20051;-91
2023/09/06 08:11:41;;;;;;;14.80;7.55;;;21.00;65.50;;;;;;4791084;29;20050;-92
2023/09/06 08:14:08;;;;;;;17.88;8.18;;;21.00;65.90;;;;;;4791198;29;20493;-93
2023/09/06 08:16:35;;;;;;;17.87;9.30;;;21.10;65.60;;;;;;4791148;29;20077;-93
2023/09/06 08:19:03;;;;;;;18.23;7.88;;;21.10;65.60;;;;;;4791088;29;20510;-93
2023/09/06 08:21:30;;;;;;;18.80;8.18;;;21.20;64.50;;;;;;4791186;29;20051;-93
2023/09/06 08:23:57;;;;;;;16.63;8.00;;;21.20;64.60;;;;;;4791088;29;20059;-92
2023/09/06 08:26:24;;;;;;;17.85;7.68;;;21.40;63.90;;;;;;4790972;29;20067;-92
2023/09/06 08:28:51;;;;;;;15.57;7.27;;;21.40;63.80;;;;;;4776438;29;20061;-93
2023/09/06 08:31:19;;;;;;;15.13;7.35;;;21.50;63.00;;;;;;4775965;29;20081;-93
2023/09/06 08:33:46;;;;;;;15.40;7.40;;;21.60;63.20;;;;;;4776094;29;20046;-92
2023/09/06 08:36:13;;;;;;;13.85;7.25;;;21.60;63.10;;;;;;4776026;29;20549;-92
2023/09/06 08:38:41;;;;;;;13.77;6.68;;;21.80;63.00;;;;;;4790887;29;20050;-92
2023/09/06 08:41:09;;;;;;;14.10;6.87;;;21.80;62.80;;;;;;4776275;29;20073;-93
2023/09/06 08:43:41;;;;;;;12.23;5.32;;;22.00;63.20;;;;;;4790968;29;20142;-92
2023/09/06 08:46:33;;;;;;;13.25;5.47;;;22.00;61.00;;;;;;4790903;29;20518;-92
2023/09/06 08:49:05;;;;;;;11.30;5.80;;;22.00;60.50;;;;;;4782715;29;20077;-93
2023/09/06 08:51:36;;;;;;;10.40;5.03;;;22.00;60.60;;;;;;4790812;29;20051;-92
2023/09/06 08:54:07;;;;;;;10.73;4.73;;;22.10;61.50;;;;;;4790608;29;20051;-92
2023/09/06 08:56:35;;;;;;;9.38;4.10;;;22.10;62.00;;;;;;4755451;30;20075;-91
2023/09/06 08:59:02;;;;;;;9.48;4.10;;;22.20;62.20;;;;;;4756011;30;20150;-93
2023/09/06 09:01:30;;;;;;;11.35;4.85;;;22.30;62.90;;;;;;4760235;29;20090;-93
2023/09/06 09:03:58;;;;;;;11.98;5.07;;;22.50;63.30;;;;;;4793767;29;20509;-92
2023/09/06 09:06:25;;;;;;;9.50;5.10;;;22.50;61.90;;;;;;4793961;29;20071;-92
2023/09/06 09:08:53;;;;;;;9.70;4.88;;;22.50;61.70;;;;;;4793923;29;20078;-92
2023/09/06 09:11:20;;;;;;;8.57;4.60;;;22.50;61.50;;;;;;4793668;29;20081;-91
2023/09/06 09:13:47;;;;;;;8.35;4.40;;;22.50;61.80;;;;;;4779057;29;20051;-92
2023/09/06 09:16:16;;;;;;;10.73;4.38;;;22.50;62.30;;;;;;4793691;29;20055;-92
2023/09/06 09:18:44;;;;;;;8.83;4.50;;;22.60;63.50;;;;;;4793833;29;20051;-91
2023/09/06 09:21:13;;;;;;;9.93;4.25;;;22.60;60.40;;;;;;4793759;29;20051;-92
2023/09/06 09:23:43;;;;;;;9.07;3.97;;;22.70;59.20;;;;;;4793553;29;20054;-91
2023/09/06 09:26:10;;;;;;;8.88;3.63;;;22.80;61.20;;;;;;4779281;29;20051;-92
2023/09/06 09:28:40;;;;;;;8.70;4.15;;;22.90;61.50;;;;;;4794159;29;20062;-92
2023/09/06 09:31:11;;;;;;;10.40;4.10;;;22.90;60.10;;;;;;4794873;29;20046;-92
2023/09/06 09:33:39;;;;;;;8.80;4.15;;;23.00;59.90;;;;;;4779240;29;20123;-92
2023/09/06 09:36:07;;;;;;;8.27;3.97;;;23.00;60.10;;;;;;4793965;29;20489;-92
2023/09/06 09:38:34;;;;;;;8.98;3.85;;;23.00;59.10;;;;;;4793899;29;20046;-92
2023/09/06 09:41:05;;;;;;;7.10;3.50;;;23.00;59.30;;;;;;4794074;29;20063;-92
2023/09/06 09:43:33;;;;;;;8.60;3.33;;;23.10;58.30;;;;;;4794074;29;20050;-92
2023/09/06 09:46:02;;;;;;;7.45;3.60;;;23.20;57.30;;;;;;4779199;29;20118;-93
2023/09/06 09:48:30;;;;;;;7.70;4.00;;;23.30;59.00;;;;;;4779190;29;20429;-92
2023/09/06 09:51:04;;;;;;;8.23;3.78;;;23.50;58.80;;;;;;4778771;29;20112;-92
2023/09/06 09:53:32;;;;;;;9.25;3.17;;;23.50;58.80;;;;;;4779403;29;20464;-92
2023/09/06 09:56:06;;;;;;;6.57;3.10;;;23.50;57.50;;;;;;4778644;29;20080;-93
2023/09/06 09:58:34;;;;;;;7.10;3.40;;;23.60;55.30;;;;;;4793601;29;20122;-92
2023/09/06 10:01:05;;;;;;;7.22;2.97;;;23.60;55.00;;;;;;4778818;29;20051;-93
2023/09/06 10:03:36;;;;;;;8.85;3.20;;;23.60;55.40;;;;;;4793811;29;20054;-92
2023/09/06 10:06:05;;;;;;;8.60;3.28;;;23.70;54.40;;;;;;4793508;29;20513;-92
2023/09/06 10:08:35;;;;;;;8.83;3.30;;;23.80;53.80;;;;;;4793774;29;20080;-94
2023/09/06 10:11:06;;;;;;;7.40;3.00;;;23.80;54.40;;;;;;4792333;29;20083;-93
2023/09/06 10:13:37;;;;;;;7.88;3.40;;;23.80;52.40;;;;;;4793395;29;20061;-92
2023/09/06 10:16:07;;;;;;;7.18;2.83;;;23.80;54.80;;;;;;4757836;30;20415;-92
2023/09/06 10:18:36;;;;;;;7.07;2.97;;;23.80;54.20;;;;;;4757742;30;20132;-91
2023/09/06 10:21:04;;;;;;;8.23;3.07;;;23.90;54.30;;;;;;4743092;30;20090;-92
2023/09/06 10:23:32;;;;;;;7.80;3.28;;;23.80;54.60;;;;;;4757593;30;20048;-92
2023/09/06 10:26:01;;;;;;;8.00;3.42;;;23.90;55.80;;;;;;4757606;30;20462;-93
2023/09/06 10:28:32;;;;;;;7.47;3.15;;;24.00;53.40;;;;;;4742669;30;20066;-92
2023/09/06 10:31:18;;;;;;;7.55;3.30;;;24.00;54.20;;;;;;4757667;30;20151;-93
2023/09/06 10:33:48;;;;;;;6.70;3.20;;;24.10;54.60;;;;;;4742758;30;20051;-92
2023/09/06 10:36:16;;;;;;;7.03;3.10;;;24.20;55.50;;;;;;4757389;30;20146;-92
2023/09/06 10:39:06;;;;;;;6.30;2.72;;;24.20;54.10;;;;;;4757238;30;20056;-92
2023/09/06 10:41:33;;;;;;;7.50;2.95;;;24.20;52.30;;;;;;4735992;30;20053;-93
2023/09/06 10:44:03;;;;;;;7.38;2.85;;;24.20;51.60;;;;;;4742571;30;20052;-92
2023/09/06 10:46:35;;;;;;;7.00;2.63;;;24.30;51.70;;;;;;4757074;30;20083;-93
2023/09/06 10:49:19;;;;;;;7.78;2.25;;;24.40;51.30;;;;;;4756947;30;20069;-93
2023/09/06 10:52:08;;;;;;;7.68;2.70;;;24.50;51.80;;;;;;4742692;30;20519;-93
2023/09/06 10:54:40;;;;;;;6.15;2.70;;;24.50;51.00;;;;;;4756788;30;20526;-92
2023/09/06 10:57:10;;;;;;;6.60;2.67;;;24.50;52.30;;;;;;4742346;30;20495;-92
2023/09/06 10:59:58;;;;;;;8.97;3.50;;;24.50;52.60;;;;;;4742416;30;20415;-92
2023/09/06 11:02:30;;;;;;;6.05;2.90;;;24.50;50.80;;;;;;4756832;30;20056;-92
2023/09/06 11:05:15;;;;;;;6.45;2.58;;;24.60;52.00;;;;;;4742386;30;20503;-93
2023/09/06 11:07:44;;;;;;;5.90;2.42;;;24.60;51.10;;;;;;4742393;30;20086;-92
2023/09/06 11:10:23;;;;;;;5.53;2.33;;;24.60;49.50;;;;;;4742619;30;20518;-92
2023/09/06 11:12:53;;;;;;;5.10;2.40;;;24.70;49.40;;;;;;4742530;30;20411;-93
2023/09/06 11:15:25;;;;;;;7.72;2.47;;;24.80;50.70;;;;;;4756893;30;20051;-92
2023/09/06 11:17:58;;;;;;;6.13;2.50;;;25.00;51.20;;;;;;4776059;29;20407;-92
2023/09/06 11:20:26;;;;;;;6.78;2.50;;;25.10;50.10;;;;;;4792493;29;20080;-93
2023/09/06 11:22:56;;;;;;;6.13;2.60;;;25.10;49.20;;;;;;4792121;29;20063;-93
2023/09/06 11:25:25;;;;;;;8.17;2.83;;;25.10;50.40;;;;;;4792309;29;20054;-93
2023/09/06 11:27:56;;;;;;;5.75;2.70;;;25.10;51.10;;;;;;4792219;29;20051;-93
2023/09/06 11:30:26;;;;;;;7.40;2.95;;;25.10;50.50;;;;;;4792267;29;20057;-93
2023/09/06 11:32:56;;;;;;;7.07;2.78;;;25.10;49.90;;;;;;4792112;29;20149;-92
2023/09/06 11:35:34;;;;;;;8.77;3.00;;;25.10;48.80;;;;;;4792161;29;20142;-93
2023/09/06 11:38:03;;;;;;;6.70;2.60;;;25.00;51.30;;;;;;4791862;29;20062;-94
2023/09/06 11:40:33;;;;;;;8.05;2.90;;;25.10;51.60;;;;;;4777269;29;20145;-93
2023/09/06 11:43:05;;;;;;;8.57;2.90;;;25.30;52.30;;;;;;4792049;29;20142;-92
2023/09/06 11:45:35;;;;;;;6.78;2.50;;;25.40;52.60;;;;;;4791936;29;20564;-93
2023/09/06 11:48:07;;;;;;;6.60;2.67;;;25.50;51.10;;;;;;4777246;29;20047;-92
2023/09/06 11:50:38;;;;;;;5.93;2.70;;;25.50;50.50;;;;;;4791860;29;20082;-92
2023/09/06 11:53:09;;;;;;;6.63;2.85;;;25.40;49.80;;;;;;4791963;29;20062;-93
2023/09/06 11:55:45;;;;;;;6.15;2.58;;;25.40;49.40;;;;;;4791909;29;20560;-93
2023/09/06 11:58:21;;;;;;;6.03;2.90;;;25.60;50.30;;;;;;4791753;29;20486;-92
2023/09/06 12:00:50;;;;;;;8.20;3.00;;;25.50;49.00;;;;;;4792076;29;20078;-93
2023/09/06 12:03:26;;;;;;;5.40;2.60;;;25.50;48.60;;;;;;4791904;29;20421;-94
2023/09/06 12:05:56;;;;;;;6.40;2.60;;;25.50;48.90;;;;;;4791762;29;20074;-92
2023/09/06 12:08:23;;;;;;;5.75;2.60;;;25.50;48.10;;;;;;4791900;29;20057;-93
2023/09/06 12:11:05;;;;;;;6.65;2.78;;;25.50;47.30;;;;;;4776784;29;20043;-93
2023/09/06 12:13:35;;;;;;;10.05;2.72;;;25.50;48.00;;;;;;4791797;29;20093;-93
2023/09/06 12:16:04;;;;;;;7.00;2.50;;;25.60;47.30;;;;;;4791675;29;20074;-93
2023/09/06 12:18:33;;;;;;;6.28;2.75;;;25.60;49.30;;;;;;4791567;29;20090;-93
2023/09/06 12:21:03;;;;;;;5.60;2.70;;;25.70;49.20;;;;;;4791577;29;20543;-92
2023/09/06 12:23:32;;;;;;;5.40;2.53;;;25.80;49.90;;;;;;4776735;29;20047;-93
2023/09/06 12:26:03;;;;;;;9.07;2.85;;;25.90;47.70;;;;;;4791510;29;20123;-93
2023/09/06 12:28:33;;;;;;;9.43;2.43;;;25.90;48.20;;;;;;4791478;29;20057;-93
2023/09/06 12:31:04;;;;;;;6.60;2.90;;;26.00;46.90;;;;;;4791718;29;20085;-93
2023/09/06 12:33:45;;;;;;;8.18;2.63;;;26.10;46.10;;;;;;4792434;29;20062;-93
2023/09/06 12:36:14;;;;;;;7.18;2.72;;;26.10;46.10;;;;;;4795204;29;20502;-93
2023/09/06 12:38:42;;;;;;;5.30;2.45;;;26.10;47.80;;;;;;4780364;29;20061;-93
2023/09/06 12:41:09;;;;;;;7.00;2.70;;;26.20;47.40;;;;;;4780501;29;20054;-94
2023/09/06 12:43:37;;;;;;;7.65;2.22;;;26.20;48.70;;;;;;4780228;29;20051;-93
2023/09/06 12:46:07;;;;;;;6.32;2.70;;;26.20;47.30;;;;;;4794755;29;20463;-93
2023/09/06 12:48:35;;;;;;;7.55;2.80;;;26.20;46.10;;;;;;4795089;29;20054;-93
2023/09/06 12:51:05;;;;;;;5.15;2.33;;;26.30;46.50;;;;;;4794594;29;20047;-93
2023/09/06 12:53:33;;;;;;;5.50;2.47;;;26.30;45.70;;;;;;4794932;29;20054;-93
2023/09/06 12:56:00;;;;;;;6.32;2.97;;;26.50;46.00;;;;;;4779603;29;20065;-94